Time;durP1;ratioP1;P1;durP2;ratioP2;P2;SDS_P1;SDS_P2;PMS_P1;PMS_P2;Temp;Humidity;BMP_temperature;BMP_pressure;BME280_temperature;BME280_humidity;BME280_pressure;Samples;Min_cycle;Max_cycle;Signal;HPM_P1;HPM_P2
2021/03/04 00:00:21;;;;;;;32.47;20.13;;;14.00;48.20;;;;;;5090878;28;20633;-52
2021/03/04 00:02:48;;;;;;;23.83;18.50;;;13.90;48.20;;;;;;5090708;28;20652;-51
2021/03/04 00:05:15;;;;;;;25.37;17.57;;;13.90;48.30;;;;;;5090223;28;20620;-54
2021/03/04 00:07:42;;;;;;;26.87;19.70;;;13.90;48.30;;;;;;5091415;28;20677;-52
2021/03/04 00:10:09;;;;;;;24.63;17.60;;;13.80;48.30;;;;;;5090465;28;20636;-53
2021/03/04 00:12:36;;;;;;;23.57;20.10;;;13.80;48.40;;;;;;5091121;28;20684;-53
2021/03/04 00:15:04;;;;;;;21.17;17.73;;;13.80;48.40;;;;;;5090439;28;20683;-53
2021/03/04 00:17:32;;;;;;;25.73;18.73;;;13.80;48.40;;;;;;5088801;28;20689;-52
2021/03/04 00:19:59;;;;;;;39.20;20.30;;;13.80;48.40;;;;;;5090910;28;20685;-52
2021/03/04 00:22:25;;;;;;;22.10;19.03;;;13.80;48.40;;;;;;5089356;28;21023;-51
2021/03/04 00:24:52;;;;;;;19.57;16.97;;;13.70;48.30;;;;;;5089175;28;20636;-52
2021/03/04 00:27:19;;;;;;;22.70;16.13;;;13.70;48.60;;;;;;5090764;28;21208;-53
2021/03/04 00:29:46;;;;;;;20.40;16.47;;;13.80;48.20;;;;;;5089703;28;20628;-52
2021/03/04 00:32:12;;;;;;;22.50;17.03;;;13.80;47.90;;;;;;5090053;28;20949;-52
2021/03/04 00:34:40;;;;;;;28.10;18.03;;;13.80;47.90;;;;;;5090052;28;20717;-53
2021/03/04 00:37:06;;;;;;;24.10;18.57;;;13.80;47.80;;;;;;5089298;28;20632;-52
2021/03/04 00:39:33;;;;;;;22.60;17.97;;;13.90;47.60;;;;;;5087640;28;20632;-53
2021/03/04 00:42:00;;;;;;;24.97;17.20;;;13.80;47.60;;;;;;5100083;28;21163;-52
2021/03/04 00:44:27;;;;;;;22.57;16.77;;;13.80;47.70;;;;;;5098122;28;20718;-52
2021/03/04 00:46:54;;;;;;;21.33;17.33;;;13.80;47.60;;;;;;5110027;28;21179;-52
2021/03/04 00:49:20;;;;;;;23.23;17.03;;;13.80;47.80;;;;;;5109837;28;20998;-52
2021/03/04 00:51:48;;;;;;;24.47;17.90;;;13.80;47.70;;;;;;5110979;28;20622;-53
2021/03/04 00:54:15;;;;;;;21.67;18.07;;;13.80;47.70;;;;;;5104724;28;21042;-52
2021/03/04 00:56:41;;;;;;;20.43;17.13;;;13.90;47.70;;;;;;5089673;28;20632;-53
2021/03/04 00:59:08;;;;;;;22.77;19.10;;;13.90;47.70;;;;;;5089233;28;21042;-52
2021/03/04 01:01:35;;;;;;;22.83;17.13;;;13.80;47.70;;;;;;5090062;28;20636;-52
2021/03/04 01:04:02;;;;;;;19.60;16.27;;;13.80;47.70;;;;;;5089558;28;20712;-53
2021/03/04 01:06:28;;;;;;;26.67;17.07;;;13.80;47.90;;;;;;5089525;28;20919;-53
2021/03/04 01:08:56;;;;;;;21.47;16.23;;;13.80;47.60;;;;;;5089547;28;20620;-53
2021/03/04 01:11:22;;;;;;;18.73;16.53;;;13.80;47.60;;;;;;5087741;28;20639;-53
2021/03/04 01:13:49;;;;;;;24.87;18.23;;;13.80;47.60;;;;;;5088715;28;20656;-51
2021/03/04 01:16:16;;;;;;;19.60;16.40;;;13.80;47.70;;;;;;5089033;28;21216;-51
2021/03/04 01:18:42;;;;;;;20.43;17.80;;;13.80;47.70;;;;;;5089909;28;20699;-52
2021/03/04 01:21:09;;;;;;;24.90;16.30;;;13.80;47.40;;;;;;5090073;28;21222;-52
2021/03/04 01:23:36;;;;;;;24.83;15.90;;;13.80;47.30;;;;;;5089066;28;20687;-53
2021/03/04 01:26:04;;;;;;;16.37;14.70;;;13.80;47.30;;;;;;5089669;28;21222;-53
2021/03/04 01:28:30;;;;;;;22.30;17.27;;;13.70;47.10;;;;;;5088781;28;20627;-53
2021/03/04 01:30:57;;;;;;;22.10;15.40;;;13.70;47.10;;;;;;5089696;28;20632;-53
2021/03/04 01:33:24;;;;;;;23.87;17.03;;;13.70;47.20;;;;;;5089438;28;20652;-52
2021/03/04 01:35:50;;;;;;;16.97;14.13;;;13.70;47.10;;;;;;5092157;28;20760;-53
2021/03/04 01:38:17;;;;;;;18.27;15.60;;;13.80;47.10;;;;;;5093115;28;20644;-52
2021/03/04 01:40:44;;;;;;;18.97;16.00;;;13.80;47.00;;;;;;5092465;28;20628;-51
2021/03/04 01:43:12;;;;;;;19.20;15.23;;;13.80;46.90;;;;;;5092785;28;21196;-52
2021/03/04 01:45:39;;;;;;;20.17;15.80;;;13.80;46.80;;;;;;5072878;28;21207;-53
2021/03/04 01:48:07;;;;;;;22.67;15.57;;;13.90;47.00;;;;;;5072721;28;20636;-52
2021/03/04 01:50:34;;;;;;;20.60;16.40;;;13.90;46.80;;;;;;5073006;28;20625;-51
2021/03/04 01:53:01;;;;;;;18.43;15.57;;;13.90;46.80;;;;;;5084276;28;21205;-52
2021/03/04 01:55:27;;;;;;;20.53;16.10;;;13.90;46.90;;;;;;5092788;28;20751;-53
2021/03/04 01:57:54;;;;;;;18.00;15.00;;;13.90;46.90;;;;;;5092680;28;20701;-52
2021/03/04 02:00:22;;;;;;;18.00;16.10;;;13.90;46.80;;;;;;5093018;28;20730;-53
2021/03/04 02:02:49;;;;;;;23.53;17.30;;;13.90;46.80;;;;;;5092709;28;20659;-52
2021/03/04 02:05:17;;;;;;;22.90;16.57;;;13.80;46.70;;;;;;5092639;28;20681;-53
2021/03/04 02:07:48;;;;;;;20.50;17.07;;;13.80;46.80;;;;;;5092002;28;20612;-53
2021/03/04 02:10:18;;;;;;;23.80;16.23;;;13.70;46.80;;;;;;5092540;28;20639;-52
2021/03/04 02:12:49;;;;;;;22.70;15.87;;;13.70;46.90;;;;;;5092245;28;20720;-53
2021/03/04 02:15:18;;;;;;;20.37;15.27;;;13.70;46.90;;;;;;5092577;28;20656;-53
2021/03/04 02:17:47;;;;;;;21.73;16.97;;;13.70;46.90;;;;;;5091502;28;20693;-50
2021/03/04 02:20:26;;;;;;;19.20;16.17;;;13.60;46.70;;;;;;5072040;28;20650;-52
2021/03/04 02:22:58;;;;;;;24.73;16.00;;;13.70;46.80;;;;;;5071677;28;20739;-53
2021/03/04 02:25:28;;;;;;;16.63;14.77;;;13.60;46.70;;;;;;5071701;28;20613;-53
2021/03/04 02:27:56;;;;;;;17.30;15.40;;;13.60;46.90;;;;;;5073019;28;20620;-52
2021/03/04 02:30:24;;;;;;;17.77;15.90;;;13.60;46.80;;;;;;5092255;28;20616;-53
2021/03/04 02:32:52;;;;;;;20.70;15.77;;;13.60;46.90;;;;;;5092065;28;20648;-52
2021/03/04 02:35:20;;;;;;;15.90;13.87;;;13.50;46.90;;;;;;5091390;28;20710;-52
2021/03/04 02:37:49;;;;;;;18.83;15.63;;;13.50;47.00;;;;;;5091538;28;20685;-53
2021/03/04 02:40:16;;;;;;;21.50;15.87;;;13.50;47.00;;;;;;5088254;28;20677;-53
2021/03/04 02:42:43;;;;;;;17.97;14.27;;;13.50;47.00;;;;;;5087102;28;20657;-51
2021/03/04 02:45:11;;;;;;;21.53;13.20;;;13.50;47.00;;;;;;5090265;28;20670;-52
2021/03/04 02:47:39;;;;;;;16.50;13.20;;;13.50;47.00;;;;;;5096258;28;20697;-52
2021/03/04 02:50:06;;;;;;;24.87;15.80;;;13.30;47.00;;;;;;5099281;28;20629;-53
2021/03/04 02:52:33;;;;;;;19.30;16.70;;;13.30;47.20;;;;;;5102885;28;20732;-53
2021/03/04 02:55:00;;;;;;;21.90;15.93;;;13.20;47.10;;;;;;5083570;28;21169;-53
2021/03/04 02:57:26;;;;;;;18.17;14.20;;;13.20;47.20;;;;;;5099880;28;21165;-53
2021/03/04 02:59:53;;;;;;;20.87;15.23;;;13.20;47.30;;;;;;5092575;28;20630;-53
2021/03/04 03:02:21;;;;;;;17.77;14.67;;;13.20;47.20;;;;;;5103168;28;21466;-53
2021/03/04 03:04:47;;;;;;;17.80;15.30;;;13.30;47.20;;;;;;5100717;28;21202;-53
2021/03/04 03:07:14;;;;;;;17.27;15.50;;;13.20;47.20;;;;;;5094404;28;20670;-53
2021/03/04 03:09:42;;;;;;;17.60;13.63;;;13.20;47.30;;;;;;5097622;28;20743;-53
2021/03/04 03:12:10;;;;;;;18.10;14.90;;;13.20;47.20;;;;;;5092611;28;20627;-53
2021/03/04 03:14:37;;;;;;;22.40;15.10;;;13.20;47.30;;;;;;5093573;28;20647;-53
2021/03/04 03:17:04;;;;;;;17.60;15.57;;;13.10;47.30;;;;;;5090484;28;20656;-53
2021/03/04 03:19:32;;;;;;;16.07;13.63;;;13.10;47.40;;;;;;5089757;28;20623;-53
2021/03/04 03:21:59;;;;;;;20.63;15.87;;;13.00;47.50;;;;;;5091497;28;21250;-53
2021/03/04 03:24:25;;;;;;;20.30;13.83;;;13.00;47.60;;;;;;5090937;28;20734;-53
2021/03/04 03:26:52;;;;;;;23.23;15.07;;;12.90;47.60;;;;;;5091704;28;20630;-52
2021/03/04 03:29:19;;;;;;;19.37;14.80;;;12.90;47.70;;;;;;5090525;28;20628;-51
2021/03/04 03:31:46;;;;;;;19.90;15.23;;;12.90;47.70;;;;;;5091610;28;20713;-51
2021/03/04 03:34:13;;;;;;;15.73;14.03;;;12.80;47.70;;;;;;5092525;28;20721;-51
2021/03/04 03:36:41;;;;;;;18.20;14.97;;;12.70;47.70;;;;;;5092912;28;20787;-52
2021/03/04 03:39:08;;;;;;;20.17;15.07;;;12.70;47.90;;;;;;5091565;28;21157;-52
2021/03/04 03:41:35;;;;;;;15.87;13.13;;;12.60;48.00;;;;;;5090630;28;20669;-52
2021/03/04 03:44:02;;;;;;;20.30;15.43;;;12.60;48.00;;;;;;5090991;28;20668;-52
2021/03/04 03:46:31;;;;;;;20.10;14.67;;;12.60;48.00;;;;;;5090308;28;20620;-52
2021/03/04 03:48:58;;;;;;;21.80;15.37;;;12.60;48.10;;;;;;5089737;28;20669;-52
2021/03/04 03:51:25;;;;;;;24.20;15.47;;;12.60;48.20;;;;;;5090688;28;20660;-52
2021/03/04 03:53:53;;;;;;;23.40;15.90;;;12.50;48.10;;;;;;5089045;28;20706;-52
2021/03/04 03:56:20;;;;;;;17.00;13.93;;;12.50;48.10;;;;;;5088496;28;20695;-52
2021/03/04 03:58:46;;;;;;;21.87;15.00;;;12.50;48.20;;;;;;5089854;28;21218;-52
2021/03/04 04:01:13;;;;;;;20.60;14.67;;;12.60;48.30;;;;;;5090665;28;20631;-52
2021/03/04 04:03:40;;;;;;;16.67;13.23;;;12.50;48.40;;;;;;5090200;28;20660;-52
2021/03/04 04:06:07;;;;;;;19.33;12.77;;;12.50;48.50;;;;;;5090438;28;20612;-53
2021/03/04 04:08:34;;;;;;;17.50;13.70;;;12.50;48.60;;;;;;5089211;28;20635;-52
2021/03/04 04:11:02;;;;;;;19.10;14.33;;;12.50;48.50;;;;;;5089631;28;20624;-53
2021/03/04 04:13:29;;;;;;;23.20;14.40;;;12.50;48.70;;;;;;5089786;28;21223;-53
2021/03/04 04:15:55;;;;;;;17.60;15.67;;;12.40;48.70;;;;;;5090467;28;20660;-52
2021/03/04 04:18:22;;;;;;;18.70;16.20;;;12.40;48.80;;;;;;5089620;28;20697;-53
2021/03/04 04:20:49;;;;;;;18.57;15.10;;;12.40;48.90;;;;;;5089950;28;20632;-54
2021/03/04 04:23:16;;;;;;;16.47;14.87;;;12.40;48.90;;;;;;5089703;28;20668;-53
2021/03/04 04:25:47;;;;;;;20.10;14.17;;;12.40;49.00;;;;;;5089916;28;20705;-53
2021/03/04 04:28:15;;;;;;;19.43;15.97;;;12.30;49.10;;;;;;5079405;28;20633;-52
2021/03/04 04:30:42;;;;;;;29.03;16.43;;;12.30;49.30;;;;;;5088760;28;20693;-52
2021/03/04 04:33:09;;;;;;;20.20;15.43;;;12.20;49.40;;;;;;5089827;28;20691;-52
2021/03/04 04:35:35;;;;;;;20.10;16.17;;;12.20;49.50;;;;;;5087305;28;20644;-53
2021/03/04 04:38:02;;;;;;;17.43;13.27;;;12.20;49.60;;;;;;5088963;28;20762;-52
2021/03/04 04:40:29;;;;;;;20.40;14.97;;;12.20;49.70;;;;;;5089173;28;20638;-53
2021/03/04 04:42:56;;;;;;;19.70;14.53;;;12.20;49.70;;;;;;5089900;28;20685;-54
2021/03/04 04:45:23;;;;;;;19.83;15.13;;;12.20;49.70;;;;;;5073923;28;20689;-52
2021/03/04 04:47:50;;;;;;;19.30;15.53;;;12.20;49.80;;;;;;5082601;28;21110;-53
2021/03/04 04:50:17;;;;;;;19.57;14.00;;;12.20;49.80;;;;;;5089603;28;20628;-53
2021/03/04 04:52:43;;;;;;;21.67;15.27;;;12.20;49.90;;;;;;5089338;28;21060;-52
2021/03/04 04:55:11;;;;;;;21.00;14.73;;;12.20;49.90;;;;;;5090092;28;20624;-51
2021/03/04 04:57:37;;;;;;;17.30;14.10;;;12.30;49.90;;;;;;5089441;28;21163;-52
2021/03/04 05:00:04;;;;;;;18.00;15.93;;;12.30;50.40;;;;;;5073060;28;20775;-52
2021/03/04 05:02:32;;;;;;;23.83;16.40;;;12.30;49.70;;;;;;5086076;28;20635;-52
2021/03/04 05:04:59;;;;;;;17.13;15.37;;;12.20;49.70;;;;;;5089477;28;20624;-51
2021/03/04 05:07:25;;;;;;;21.47;14.30;;;12.20;49.80;;;;;;5089199;28;20622;-52
2021/03/04 05:09:52;;;;;;;18.73;15.13;;;12.20;49.90;;;;;;5089427;28;20624;-53
2021/03/04 05:12:20;;;;;;;24.27;14.97;;;12.20;49.80;;;;;;5092154;28;20641;-52
2021/03/04 05:14:47;;;;;;;18.10;14.37;;;12.20;49.90;;;;;;5079753;28;20652;-52
2021/03/04 05:17:14;;;;;;;17.07;14.03;;;12.30;49.70;;;;;;5086284;28;20656;-52
2021/03/04 05:19:41;;;;;;;19.63;14.80;;;12.30;49.80;;;;;;5093961;28;20622;-52
2021/03/04 05:22:08;;;;;;;19.80;15.23;;;12.40;49.70;;;;;;5084004;28;20621;-52
2021/03/04 05:24:35;;;;;;;19.83;14.60;;;12.30;49.70;;;;;;5085374;28;21083;-52
2021/03/04 05:27:02;;;;;;;16.23;14.07;;;12.30;49.80;;;;;;5084381;28;20640;-51
2021/03/04 05:29:28;;;;;;;21.53;14.77;;;12.30;49.80;;;;;;5081199;28;20659;-52
2021/03/04 05:31:55;;;;;;;18.83;13.00;;;12.30;49.80;;;;;;5080080;28;21155;-53
2021/03/04 05:34:22;;;;;;;21.20;14.50;;;12.30;49.90;;;;;;5083697;28;20647;-51
2021/03/04 05:36:49;;;;;;;21.40;15.17;;;12.20;49.90;;;;;;5093278;28;20658;-51
2021/03/04 05:39:16;;;;;;;18.23;14.93;;;12.20;49.90;;;;;;5081833;28;20713;-52
2021/03/04 05:41:43;;;;;;;15.77;13.93;;;12.20;50.00;;;;;;5092795;28;20628;-52
2021/03/04 05:44:09;;;;;;;19.53;14.93;;;12.10;50.30;;;;;;5093496;28;20652;-51
2021/03/04 05:46:37;;;;;;;20.30;13.40;;;12.10;50.30;;;;;;5091733;28;20662;-51
2021/03/04 05:49:04;;;;;;;19.70;13.63;;;12.10;50.50;;;;;;5092809;28;20669;-51
2021/03/04 05:51:34;;;;;;;18.40;13.30;;;12.00;50.30;;;;;;5089666;28;20628;-51
2021/03/04 05:54:01;;;;;;;20.10;13.80;;;12.00;50.50;;;;;;5083245;28;20683;-52
2021/03/04 05:56:28;;;;;;;23.50;16.17;;;11.80;50.80;;;;;;5078529;28;21208;-51
2021/03/04 05:58:55;;;;;;;17.40;15.37;;;11.80;50.90;;;;;;5093077;28;21161;-52
2021/03/04 06:01:21;;;;;;;18.73;13.50;;;11.70;50.90;;;;;;5087074;28;20993;-53
2021/03/04 06:03:48;;;;;;;19.67;15.27;;;11.60;51.00;;;;;;5080197;28;20660;-51
2021/03/04 06:06:15;;;;;;;12.23;10.93;;;11.60;51.20;;;;;;5077352;28;20975;-51
2021/03/04 06:08:42;;;;;;;16.33;14.33;;;11.60;51.30;;;;;;5080827;28;20928;-51
2021/03/04 06:11:10;;;;;;;22.47;15.23;;;11.50;51.40;;;;;;5092820;28;20636;-51
2021/03/04 06:13:36;;;;;;;18.57;15.83;;;11.50;51.40;;;;;;5092168;28;20701;-51
2021/03/04 06:16:04;;;;;;;19.67;14.97;;;11.50;51.60;;;;;;5092305;28;20686;-52
2021/03/04 06:18:40;;;;;;;21.83;14.07;;;11.60;51.70;;;;;;5092393;28;21261;-52
2021/03/04 06:21:18;;;;;;;17.50;14.47;;;11.60;51.60;;;;;;5091279;28;20796;-51
2021/03/04 06:23:45;;;;;;;28.43;15.77;;;11.60;51.60;;;;;;5091697;28;20639;-51
2021/03/04 06:26:22;;;;;;;20.20;15.53;;;11.60;51.50;;;;;;5092673;28;20628;-52
2021/03/04 06:28:49;;;;;;;21.03;14.20;;;11.60;51.40;;;;;;5088586;28;20692;-52
2021/03/04 06:31:18;;;;;;;20.63;15.30;;;11.60;51.50;;;;;;5078474;28;20639;-52
2021/03/04 06:33:45;;;;;;;20.70;14.43;;;11.70;51.70;;;;;;5092249;28;20686;-53
2021/03/04 06:36:13;;;;;;;19.30;15.83;;;11.70;51.60;;;;;;5092438;28;20680;-52
2021/03/04 06:38:40;;;;;;;15.23;12.87;;;11.70;51.40;;;;;;5091849;28;20653;-53
2021/03/04 06:41:18;;;;;;;23.03;13.80;;;11.70;51.40;;;;;;5091726;28;20801;-53
2021/03/04 06:43:45;;;;;;;16.50;13.40;;;11.80;51.50;;;;;;5080085;28;20767;-53
2021/03/04 06:46:12;;;;;;;21.40;15.23;;;11.80;51.30;;;;;;5092470;28;20788;-53
2021/03/04 06:48:51;;;;;;;23.27;15.50;;;11.80;51.50;;;;;;5091899;28;20624;-53
2021/03/04 06:51:18;;;;;;;17.27;14.07;;;11.80;51.50;;;;;;5090269;28;20616;-53
2021/03/04 06:53:51;;;;;;;18.10;12.37;;;11.90;51.50;;;;;;5091654;28;20701;-54
2021/03/04 06:56:28;;;;;;;16.73;14.00;;;11.90;51.30;;;;;;5092224;28;20729;-54
2021/03/04 06:58:59;;;;;;;17.83;14.40;;;11.90;51.30;;;;;;5091527;28;20616;-55
2021/03/04 07:01:26;;;;;;;19.33;13.83;;;11.90;51.30;;;;;;5090340;28;20616;-52
2021/03/04 07:03:54;;;;;;;15.50;10.03;;;11.80;51.40;;;;;;5091475;28;21016;-53
2021/03/04 07:06:21;;;;;;;18.73;14.17;;;11.70;51.50;;;;;;5091500;28;20658;-52
2021/03/04 07:08:48;;;;;;;20.20;14.83;;;11.70;51.90;;;;;;5091591;28;20697;-53
2021/03/04 07:11:15;;;;;;;16.03;14.40;;;11.60;52.00;;;;;;5091347;28;20604;-53
2021/03/04 07:13:43;;;;;;;20.77;14.47;;;11.70;52.20;;;;;;5090725;28;21025;-52
2021/03/04 07:16:13;;;;;;;17.60;13.47;;;11.70;52.00;;;;;;5091195;28;20656;-53
2021/03/04 07:18:41;;;;;;;23.83;14.57;;;11.80;51.90;;;;;;5091207;28;20755;-52
2021/03/04 07:21:09;;;;;;;19.53;17.20;;;11.90;51.80;;;;;;5091311;28;20636;-53
2021/03/04 07:23:37;;;;;;;18.23;14.23;;;12.00;51.80;;;;;;5090081;28;20664;-53
2021/03/04 07:26:04;;;;;;;23.93;16.23;;;11.90;51.70;;;;;;5091279;28;20685;-54
2021/03/04 07:28:31;;;;;;;23.63;15.13;;;12.00;51.80;;;;;;5091235;28;20671;-51
2021/03/04 07:30:59;;;;;;;26.30;16.20;;;12.00;51.60;;;;;;5089484;28;20681;-52
2021/03/04 07:33:26;;;;;;;16.30;14.40;;;12.00;51.70;;;;;;5089123;28;20655;-52
2021/03/04 07:35:53;;;;;;;18.73;14.50;;;12.00;51.50;;;;;;5090961;28;20977;-52
2021/03/04 07:38:24;;;;;;;18.17;15.33;;;12.10;51.60;;;;;;5091395;28;20630;-51
2021/03/04 07:41:05;;;;;;;24.37;14.17;;;12.20;51.50;;;;;;5091244;28;21021;-51
2021/03/04 07:43:47;;;;;;;19.63;14.43;;;12.20;51.30;;;;;;5090170;28;20656;-52
2021/03/04 07:46:30;;;;;;;17.97;14.70;;;12.20;51.30;;;;;;5088267;28;20661;-53
2021/03/04 07:48:57;;;;;;;18.67;15.03;;;12.20;51.50;;;;;;5090604;28;20663;-53
2021/03/04 07:51:24;;;;;;;19.03;15.40;;;12.10;51.40;;;;;;5090843;28;20628;-53
2021/03/04 07:53:50;;;;;;;17.87;15.90;;;12.10;51.50;;;;;;5090601;28;20709;-52
2021/03/04 07:56:24;;;;;;;19.70;15.77;;;12.10;51.50;;;;;;5090501;28;20717;-53
2021/03/04 07:58:51;;;;;;;18.90;13.87;;;12.20;51.50;;;;;;5083698;28;20677;-53
2021/03/04 08:01:18;;;;;;;18.03;15.80;;;12.30;51.40;;;;;;5090719;28;21157;-53
2021/03/04 08:03:49;;;;;;;29.23;15.43;;;12.40;51.40;;;;;;5090784;28;21180;-54
2021/03/04 08:06:16;;;;;;;21.10;16.70;;;12.40;51.20;;;;;;5086926;28;20624;-54
2021/03/04 08:08:45;;;;;;;19.70;14.80;;;12.50;51.20;;;;;;5078347;28;20616;-53
2021/03/04 08:11:22;;;;;;;21.03;15.30;;;12.50;51.40;;;;;;5079247;28;20690;-53
2021/03/04 08:13:49;;;;;;;23.33;15.47;;;12.60;51.00;;;;;;5077092;28;20727;-54
2021/03/04 08:16:16;;;;;;;21.70;14.83;;;12.80;51.00;;;;;;5075698;28;20681;-54
2021/03/04 08:18:45;;;;;;;17.73;14.60;;;12.90;50.90;;;;;;5089558;28;20628;-53
2021/03/04 08:21:12;;;;;;;19.03;16.97;;;13.00;50.10;;;;;;5089711;28;20616;-54
2021/03/04 08:23:42;;;;;;;20.63;17.20;;;13.10;50.10;;;;;;5088191;28;21031;-53
2021/03/04 08:26:17;;;;;;;18.07;14.73;;;13.20;49.90;;;;;;5089854;28;20669;-53
2021/03/04 08:28:43;;;;;;;16.63;14.93;;;13.30;49.90;;;;;;5090167;28;20624;-51
2021/03/04 08:31:10;;;;;;;20.80;16.07;;;13.40;49.40;;;;;;5089921;28;20723;-52
2021/03/04 08:33:37;;;;;;;23.77;15.37;;;13.50;49.20;;;;;;5089325;28;20744;-53
2021/03/04 08:36:04;;;;;;;16.93;14.80;;;13.60;49.20;;;;;;5090073;28;20665;-53
2021/03/04 08:38:39;;;;;;;18.53;16.00;;;13.50;49.10;;;;;;5090149;28;20624;-52
2021/03/04 08:41:06;;;;;;;18.07;16.17;;;13.50;49.00;;;;;;5090334;28;20739;-52
2021/03/04 08:43:32;;;;;;;21.67;15.97;;;13.40;49.40;;;;;;5087924;28;21202;-51
2021/03/04 08:46:00;;;;;;;22.37;16.37;;;13.40;49.30;;;;;;5088505;28;20656;-52
2021/03/04 08:48:27;;;;;;;18.07;15.33;;;13.30;49.50;;;;;;5088408;28;20620;-51
2021/03/04 08:50:54;;;;;;;20.20;15.70;;;13.50;49.70;;;;;;5088070;28;20743;-52
2021/03/04 08:53:22;;;;;;;21.27;15.33;;;13.60;49.10;;;;;;5088968;28;20683;-52
2021/03/04 08:55:52;;;;;;;21.33;14.57;;;13.80;48.90;;;;;;5089710;28;21161;-52
2021/03/04 08:58:19;;;;;;;22.80;17.77;;;13.90;48.50;;;;;;5088852;28;20664;-52
2021/03/04 09:00:48;;;;;;;16.27;14.57;;;13.80;48.30;;;;;;5089414;28;20693;-52
2021/03/04 09:03:15;;;;;;;23.47;15.67;;;13.60;48.60;;;;;;5089181;28;21277;-52
2021/03/04 09:05:41;;;;;;;20.70;15.10;;;13.50;49.30;;;;;;5089878;28;20632;-52
2021/03/04 09:08:11;;;;;;;20.93;14.07;;;13.40;49.50;;;;;;5089620;28;20644;-51
2021/03/04 09:10:45;;;;;;;18.67;16.70;;;13.50;49.70;;;;;;5088504;28;20620;-51
2021/03/04 09:13:18;;;;;;;19.80;14.10;;;13.50;49.90;;;;;;5089004;28;20718;-51
2021/03/04 09:15:48;;;;;;;30.93;19.13;;;13.30;50.70;;;;;;5088867;28;20695;-52
2021/03/04 09:18:16;;;;;;;20.13;17.30;;;13.10;50.70;;;;;;5088554;28;20702;-52
2021/03/04 09:20:43;;;;;;;22.33;17.47;;;13.10;50.90;;;;;;5089105;28;20654;-51
2021/03/04 09:23:10;;;;;;;21.20;16.17;;;13.30;51.00;;;;;;5080045;28;20714;-51
2021/03/04 09:25:37;;;;;;;17.53;14.37;;;13.40;51.20;;;;;;5068663;28;20625;-52
2021/03/04 09:28:04;;;;;;;22.37;19.73;;;13.50;50.70;;;;;;5068366;28;20921;-52
2021/03/04 09:30:33;;;;;;;20.40;17.43;;;13.50;50.60;;;;;;5068330;28;20674;-54
2021/03/04 09:33:00;;;;;;;23.77;18.47;;;13.50;50.60;;;;;;5068514;28;20679;-53
2021/03/04 09:35:26;;;;;;;19.27;15.63;;;13.60;51.00;;;;;;5068660;28;20782;-52
2021/03/04 09:37:54;;;;;;;19.57;17.37;;;13.70;50.50;;;;;;5085155;28;20691;-53
2021/03/04 09:40:24;;;;;;;20.60;18.43;;;13.80;50.30;;;;;;5087937;28;20805;-53
2021/03/04 09:42:51;;;;;;;21.87;17.97;;;14.00;50.10;;;;;;5089612;28;20666;-53
2021/03/04 09:45:18;;;;;;;20.67;18.67;;;14.10;50.60;;;;;;5089509;28;20628;-53
2021/03/04 09:47:46;;;;;;;20.77;15.63;;;14.20;50.00;;;;;;5089798;28;20624;-53
2021/03/04 09:50:18;;;;;;;27.97;19.17;;;14.20;49.90;;;;;;5089954;28;20685;-53
2021/03/04 09:52:44;;;;;;;28.10;20.20;;;14.30;49.90;;;;;;5089059;28;20659;-52
2021/03/04 09:55:13;;;;;;;21.27;18.50;;;14.40;49.50;;;;;;5089296;28;20624;-53
2021/03/04 09:57:41;;;;;;;23.30;20.50;;;14.50;49.40;;;;;;5092228;28;20685;-52
2021/03/04 10:00:18;;;;;;;22.97;19.63;;;14.60;49.30;;;;;;5092734;28;20627;-52
2021/03/04 10:02:46;;;;;;;20.37;18.27;;;14.50;49.30;;;;;;5091222;28;20720;-50
2021/03/04 10:05:15;;;;;;;21.37;18.27;;;14.70;49.60;;;;;;5092483;28;20628;-51
2021/03/04 10:07:42;;;;;;;25.00;20.77;;;14.70;49.40;;;;;;5091894;28;20623;-52
2021/03/04 10:10:12;;;;;;;23.30;19.27;;;14.70;49.50;;;;;;5092499;28;20712;-53
2021/03/04 10:12:49;;;;;;;24.33;21.30;;;14.90;49.30;;;;;;5091233;28;20677;-53
2021/03/04 10:15:29;;;;;;;22.07;18.90;;;15.10;49.20;;;;;;5091459;28;20684;-52
2021/03/04 10:17:57;;;;;;;21.87;18.40;;;15.30;48.50;;;;;;5091981;28;20833;-52
2021/03/04 10:20:24;;;;;;;21.70;19.53;;;15.20;48.40;;;;;;5091829;28;20632;-53
2021/03/04 10:22:51;;;;;;;21.93;19.60;;;15.10;48.70;;;;;;5091720;28;20703;-52
2021/03/04 10:25:18;;;;;;;24.47;20.10;;;15.20;49.00;;;;;;5092071;28;21209;-53
2021/03/04 10:27:45;;;;;;;24.77;21.50;;;15.10;48.90;;;;;;5091426;28;20612;-51
2021/03/04 10:30:13;;;;;;;25.10;19.90;;;15.10;49.20;;;;;;5091547;28;20677;-53
2021/03/04 10:32:40;;;;;;;29.17;20.33;;;15.00;49.00;;;;;;5091522;28;20701;-52
2021/03/04 10:35:09;;;;;;;24.40;19.63;;;15.00;49.50;;;;;;5091879;28;21264;-53
2021/03/04 10:37:36;;;;;;;21.43;15.17;;;14.80;49.70;;;;;;5091483;28;20705;-54
2021/03/04 10:40:03;;;;;;;25.87;20.70;;;14.70;49.70;;;;;;5091501;28;20620;-54
2021/03/04 10:42:30;;;;;;;22.97;20.37;;;14.70;49.80;;;;;;5071210;28;21161;-53
2021/03/04 10:44:59;;;;;;;23.70;20.57;;;14.90;49.90;;;;;;5071848;28;20621;-53
2021/03/04 10:47:26;;;;;;;20.43;17.23;;;15.10;49.30;;;;;;5071032;28;20625;-53
2021/03/04 10:49:53;;;;;;;22.97;18.73;;;15.20;48.90;;;;;;5071494;28;20694;-53
2021/03/04 10:52:21;;;;;;;24.83;21.97;;;15.20;48.90;;;;;;5070991;28;20620;-53
2021/03/04 10:54:47;;;;;;;25.40;21.00;;;15.40;48.90;;;;;;5070665;28;20648;-54
2021/03/04 10:57:14;;;;;;;25.10;20.40;;;15.70;48.40;;;;;;5070767;28;21311;-53
2021/03/04 10:59:41;;;;;;;24.00;18.73;;;15.90;47.70;;;;;;5070495;28;20657;-53
2021/03/04 11:02:08;;;;;;;21.77;18.27;;;16.00;47.60;;;;;;5070688;28;20706;-55
2021/03/04 11:04:34;;;;;;;26.93;21.53;;;15.90;47.40;;;;;;5071104;28;20652;-53
2021/03/04 11:07:01;;;;;;;22.60;20.30;;;16.10;47.70;;;;;;5070667;28;20657;-54
2021/03/04 11:09:29;;;;;;;25.80;20.77;;;16.50;47.30;;;;;;5071195;28;20662;-53
2021/03/04 11:11:55;;;;;;;24.13;21.33;;;16.70;46.70;;;;;;5085294;28;21281;-54
2021/03/04 11:14:22;;;;;;;23.83;20.20;;;16.80;46.90;;;;;;5070781;28;20641;-53
2021/03/04 11:16:49;;;;;;;25.23;22.17;;;16.70;46.20;;;;;;5070232;28;20624;-53
2021/03/04 11:19:16;;;;;;;24.00;21.60;;;16.60;46.40;;;;;;5080913;28;21142;-54
2021/03/04 11:21:45;;;;;;;22.90;20.53;;;16.50;46.70;;;;;;5090566;28;20628;-53
2021/03/04 11:24:12;;;;;;;27.97;22.47;;;16.60;46.70;;;;;;5090235;28;20663;-54
2021/03/04 11:26:40;;;;;;;29.50;21.53;;;16.60;47.00;;;;;;5089868;28;21185;-54
2021/03/04 11:29:07;;;;;;;22.23;19.47;;;16.70;46.40;;;;;;5090042;28;20716;-53
2021/03/04 11:31:34;;;;;;;24.73;20.67;;;16.80;46.60;;;;;;5090236;28;21153;-54
2021/03/04 11:34:01;;;;;;;23.27;19.77;;;17.00;45.90;;;;;;5090283;28;21223;-54
2021/03/04 11:36:29;;;;;;;22.20;19.77;;;17.20;45.70;;;;;;5089886;28;20628;-53
2021/03/04 11:38:55;;;;;;;24.63;19.70;;;17.30;45.10;;;;;;5090069;28;20696;-53
2021/03/04 11:41:22;;;;;;;23.20;19.10;;;17.20;45.00;;;;;;5089698;28;20717;-53
2021/03/04 11:43:50;;;;;;;17.67;15.07;;;17.10;45.60;;;;;;5090261;28;20901;-53
2021/03/04 11:46:18;;;;;;;25.43;17.63;;;17.30;45.50;;;;;;5090109;28;20957;-52
2021/03/04 11:48:45;;;;;;;27.33;18.13;;;17.30;45.10;;;;;;5089635;28;21023;-52
2021/03/04 11:51:12;;;;;;;29.83;20.23;;;17.40;45.60;;;;;;5090283;28;20979;-51
2021/03/04 11:53:38;;;;;;;18.13;16.30;;;17.50;45.00;;;;;;5089789;28;21100;-52
2021/03/04 11:56:05;;;;;;;21.03;18.93;;;17.60;44.80;;;;;;5089896;28;20923;-52
2021/03/04 11:58:32;;;;;;;30.83;21.20;;;17.80;44.50;;;;;;5089984;28;21242;-52
2021/03/04 12:01:00;;;;;;;21.97;19.57;;;17.60;44.70;;;;;;5090480;28;20620;-52
2021/03/04 12:03:26;;;;;;;20.10;17.47;;;17.50;45.00;;;;;;5090148;28;20655;-51
2021/03/04 12:05:53;;;;;;;20.97;16.93;;;17.40;45.40;;;;;;5090773;28;20747;-52
2021/03/04 12:08:20;;;;;;;21.90;17.70;;;17.50;45.20;;;;;;5090166;28;20663;-54
2021/03/04 12:10:47;;;;;;;26.17;19.10;;;17.50;45.50;;;;;;5089543;28;20701;-51
2021/03/04 12:13:13;;;;;;;23.50;20.83;;;17.50;45.20;;;;;;5090589;28;20652;-52
2021/03/04 12:15:41;;;;;;;22.00;19.73;;;17.50;45.70;;;;;;5090285;28;20658;-52
2021/03/04 12:18:09;;;;;;;22.00;18.37;;;17.50;45.20;;;;;;5088794;28;20713;-51
2021/03/04 12:20:36;;;;;;;23.17;19.90;;;17.50;45.30;;;;;;5088898;28;20693;-52
2021/03/04 12:23:02;;;;;;;25.23;22.60;;;17.40;45.50;;;;;;5090044;28;20663;-52
2021/03/04 12:25:29;;;;;;;27.77;21.00;;;17.20;45.30;;;;;;5089680;28;20612;-53
2021/03/04 12:27:56;;;;;;;24.97;20.97;;;17.00;45.70;;;;;;5088848;28;20621;-52
2021/03/04 12:30:24;;;;;;;25.10;22.50;;;17.00;46.10;;;;;;5089803;28;20619;-52